Meteo Giornale » Osservazioni meteo Stati Uniti (USA) » Chicopee Falls-Westover

ore: 05:06 - Osservazioni Meteo Chicopee Falls-Westover
Lat. 42° 12' N Lon. 72° 32' W Alt. 75 metri s.l.m.

coperto_pioggia

19 °C

Pioviggine Foschia

Temp. 24 Ore

14 °C

26 °C

Nord

0 Km/h

Dew point 18 °C

Umidità 93 %

Visibilità  6 Km

Il sole sorge alle ore 06:15

Il sole tramonta alle ore 19:24

Data e Ora Cielo e Fenomeni T °C DP °C Um. % Pres. hPa Vis. km Vento km/h
Oggi h: 05:06 coperto_pioggia Pioviggine Foschia 19 18 93 1015 6 N 0
Oggi h: 05:05 coperto_pioggia Pioviggine Foschia 19 18 93 1015 6 N 0
Oggi h: 04:55 foschia Foschia 19 18 93 1015 6 N 0
Oggi h: 04:48 foschia Foschia 19 18 93 1015 8 N 0
Oggi h: 04:33 coperto Coperto 19 18 93 1015 10 N 0
Oggi h: 03:55 coperto Coperto 19 18 93 1015 10 N 5.5
Oggi h: 03:17 coperto Coperto 19 18 93 1016 10 N 5.5
Oggi h: 03:04 coperto Coperto 19 18 93 1016 11 N 5.5
Oggi h: 02:56 coperto_pioggia Pioviggine 19 18 93 1016 14 N 5.5
Oggi h: 02:55 coperto Coperto 19 18 93 1016 10 N 5.5
Oggi h: 01:55 coperto Coperto 19 18 93 1016 10 S 7.4
Oggi h: 01:37 coperto Coperto 20 17 82 1017 10 SO 9.3
Oggi h: 00:55 coperto Coperto 21 16 73 1017 10 N 5.5
Ieri h: 23:55 coperto Coperto 21 16 73 1017 10 S 9.3
Ieri h: 22:55 coperto Coperto 21 16 73 1017 10 S 9.3
Ieri h: 21:55 molto_nuvoloso Molto Nuvoloso 22 16 68 1017 10 S/SO 14.8
Ieri h: 20:55 coperto Coperto 22 15 64 1017 10 S 9.3
Ieri h: 19:55 molto_nuvoloso Molto Nuvoloso 24 17 64 1017 10 SO 11.1
Ieri h: 18:55 coperto Coperto 23 17 68 1017 10 N 0
Ieri h: 17:55 molto_nuvoloso Molto Nuvoloso 24 17 64 1017 10 N 0
Ieri h: 16:55 molto_nuvoloso Molto Nuvoloso 25 15 53 1017 10 N 5.5
Ieri h: 15:55 molto_nuvoloso Molto Nuvoloso 26 15 50 1017 10 S 11.1
Ieri h: 14:55 molto_nuvoloso Molto Nuvoloso 25 13 47 1018 10 SO 13
Ieri h: 13:55 molto_nuvoloso Molto Nuvoloso 25 14 50 1018 10 S 11.1
Ieri h: 12:55 molto_nuvoloso Molto Nuvoloso 25 15 53 1019 10 N 5.5
Ieri h: 11:55 molto_nuvoloso Molto Nuvoloso 25 15 53 1019 10 N 5.5
Ieri h: 10:55 molto_nuvoloso Molto Nuvoloso 23 16 64 1019 10 N 0
Ieri h: 09:55 molto_nuvoloso Molto Nuvoloso 25 19 69 1019 10 E/NE 7.4
Ieri h: 08:55 molto_nuvoloso Molto Nuvoloso 21 17 77 1019 10 N/NE 7.4
Ieri h: 07:55 molto_nuvoloso Molto Nuvoloso 17 16 93 1019 10 N 0
Ieri h: 06:55 sereno Sereno 15 14 93 1018 10 N 0
Ieri h: 05:55 sereno Sereno 14 13 93 1018 14 E/NE 7.4